Time;durP1;ratioP1;P1;durP2;ratioP2;P2;SDS_P1;SDS_P2;PMS_P1;PMS_P2;Temp;Humidity;BMP_temperature;BMP_pressure;BME280_temperature;BME280_humidity;BME280_pressure;Samples;Min_cycle;Max_cycle;Signal;HPM_P1;HPM_P2
2022/01/24 00:00:14;;;;;;;46.17;22.00;;;4.90;91.60;;;;;;5038672;28;20040;-72
2022/01/24 00:02:42;;;;;;;44.58;23.33;;;5.00;91.70;;;;;;5042916;28;20053;-72
2022/01/24 00:05:09;;;;;;;44.90;23.02;;;4.90;91.60;;;;;;5044682;28;20106;-72
2022/01/24 00:07:35;;;;;;;49.90;23.52;;;5.00;91.80;;;;;;5045736;28;20429;-72
2022/01/24 00:10:04;;;;;;;46.30;23.63;;;4.90;91.70;;;;;;5042035;28;20021;-72
2022/01/24 00:15:09;;;;;;;45.97;23.83;;;5.00;91.70;;;;;;5042701;28;20037;-72
2022/01/24 00:17:48;;;;;;;49.67;24.90;;;5.00;91.70;;;;;;5044331;28;20017;-72
2022/01/24 00:28:14;;;;;;;;;;;5.00;92.20;;;;;;5038497;28;20086;-72
2022/01/24 00:30:40;;;;;;;45.00;22.10;;;5.00;92.00;;;;;;5040707;28;19913;-72
2022/01/24 00:33:06;;;;;;;48.38;23.17;;;5.00;91.90;;;;;;5040941;28;20017;-72
2022/01/24 00:35:32;;;;;;;45.65;22.45;;;4.90;91.90;;;;;;5045290;28;20029;-72
2022/01/24 00:38:01;;;;;;;43.30;22.25;;;5.00;92.00;;;;;;5043506;28;20040;-72
2022/01/24 00:40:29;;;;;;;48.83;24.25;;;4.90;92.00;;;;;;5042088;28;20039;-72
2022/01/24 00:42:59;;;;;;;45.67;23.13;;;4.90;92.20;;;;;;5041901;28;20051;-72
2022/01/24 00:45:51;;;;;;;44.88;23.08;;;4.80;92.20;;;;;;5042910;28;20036;-71
2022/01/24 00:56:11;;;;;;;47.20;23.13;;;4.90;92.20;;;;;;5044229;28;20501;-72
2022/01/24 00:58:37;;;;;;;46.33;23.70;;;4.90;92.20;;;;;;5041977;28;20049;-72
2022/01/24 01:01:04;;;;;;;45.40;23.02;;;4.80;92.40;;;;;;5043133;28;20029;-72
2022/01/24 01:03:30;;;;;;;49.58;21.85;;;4.80;92.40;;;;;;5042797;28;20023;-72
2022/01/24 01:19:28;;;;;;;47.10;22.20;;;4.90;92.10;;;;;;5048211;28;20060;-71
2022/01/24 01:21:54;;;;;;;47.10;23.33;;;4.90;92.20;;;;;;5049658;28;20028;-71
2022/01/24 01:24:21;;;;;;;47.78;22.48;;;5.00;92.10;;;;;;5048312;28;20033;-71
2022/01/24 01:26:56;;;;;;;43.95;22.92;;;5.00;92.10;;;;;;5042580;28;20037;-71
2022/01/24 01:29:27;;;;;;;47.20;22.33;;;4.90;92.00;;;;;;5043549;28;20033;-72
2022/01/24 01:32:15;;;;;;;45.45;22.42;;;4.90;92.10;;;;;;5040118;28;20142;-72
2022/01/24 01:34:59;;;;;;;46.38;21.92;;;4.90;92.20;;;;;;5040571;28;20034;-71
2022/01/24 01:56:07;;;;;;;48.50;23.25;;;4.70;92.50;;;;;;5045376;28;20029;-71
2022/01/24 01:58:33;;;;;;;44.97;21.42;;;4.60;92.80;;;;;;5045555;28;20036;-71
2022/01/24 02:01:00;;;;;;;45.63;22.48;;;4.60;92.80;;;;;;5051575;28;20025;-72
2022/01/24 02:03:27;;;;;;;47.22;21.92;;;4.70;92.80;;;;;;5050927;28;20032;-71
2022/01/24 02:05:53;;;;;;;44.55;22.75;;;4.60;92.60;;;;;;5045422;28;20867;-71
2022/01/24 02:08:23;;;;;;;43.33;22.75;;;4.70;92.80;;;;;;5044239;28;20029;-72
2022/01/24 02:10:49;;;;;;;47.53;21.88;;;4.50;92.50;;;;;;5054325;28;20037;-71
2022/01/24 02:13:15;;;;;;;44.90;22.48;;;4.50;93.00;;;;;;5054604;28;20042;-71
2022/01/24 02:15:56;;;;;;;47.25;22.85;;;4.50;93.20;;;;;;5046493;28;20032;-71
2022/01/24 02:26:04;;;;;;;49.42;23.33;;;4.60;93.30;;;;;;5049960;28;20038;-71
2022/01/24 02:28:41;;;;;;;50.47;23.45;;;4.60;93.20;;;;;;5050718;28;20028;-71
2022/01/24 02:34:33;;;;;;;50.38;22.92;;;4.60;93.30;;;;;;5009745;28;20545;-71
2022/01/24 02:37:02;;;;;;;46.25;22.52;;;4.60;93.30;;;;;;5009521;28;20073;-71
2022/01/24 02:50:26;;;;;;;42.92;22.33;;;4.40;93.70;;;;;;5003329;28;20076;-72
2022/01/24 02:52:52;;;;;;;46.45;23.77;;;4.40;93.70;;;;;;5004888;28;20034;-71
2022/01/24 02:55:18;;;;;;;47.03;22.48;;;4.40;93.80;;;;;;5009271;28;20038;-71
2022/01/24 02:57:44;;;;;;;51.78;23.25;;;4.50;93.70;;;;;;5011165;28;20394;-71
2022/01/24 03:00:10;;;;;;;45.83;22.98;;;4.40;93.60;;;;;;5007457;28;20025;-72
2022/01/24 03:02:36;;;;;;;50.95;22.83;;;4.40;93.70;;;;;;5004355;28;20038;-71
2022/01/24 03:05:02;;;;;;;48.63;23.95;;;4.30;93.70;;;;;;4989740;28;20430;-71
2022/01/24 03:07:29;;;;;;;45.97;23.95;;;4.30;93.70;;;;;;5017528;28;20064;-71
2022/01/24 03:09:56;;;;;;;46.80;23.23;;;4.30;93.70;;;;;;5053481;28;20044;-71
2022/01/24 03:12:41;;;;;;;49.63;23.27;;;4.30;94.10;;;;;;5051300;28;20025;-71
2022/01/24 03:15:08;;;;;;;52.13;23.85;;;4.30;94.20;;;;;;5049030;28;20103;-71
2022/01/24 03:17:34;;;;;;;48.65;22.80;;;4.30;94.10;;;;;;5045953;28;20525;-71
2022/01/24 03:20:00;;;;;;;47.88;25.00;;;4.20;94.20;;;;;;5048378;28;20044;-71
2022/01/24 03:22:25;;;;;;;52.28;23.42;;;4.10;94.40;;;;;;5050769;28;20026;-72
2022/01/24 03:24:51;;;;;;;49.78;23.95;;;4.20;94.50;;;;;;5053385;28;20045;-71
2022/01/24 03:27:17;;;;;;;50.25;24.73;;;4.00;94.40;;;;;;5049777;28;20056;-71
2022/01/24 03:29:43;;;;;;;47.58;24.83;;;4.00;94.80;;;;;;5046615;28;20025;-71
2022/01/24 03:32:08;;;;;;;52.70;25.65;;;4.00;94.80;;;;;;5047707;28;20075;-71
2022/01/24 03:34:34;;;;;;;46.72;24.10;;;4.00;95.00;;;;;;5049435;28;20441;-71
2022/01/24 03:37:00;;;;;;;55.58;25.02;;;3.90;95.10;;;;;;5053132;28;20044;-71
2022/01/24 03:39:26;;;;;;;51.33;24.10;;;3.90;95.40;;;;;;5050757;28;20563;-71
2022/01/24 03:41:52;;;;;;;53.35;24.58;;;3.90;95.30;;;;;;5047091;28;20025;-71
2022/01/24 03:44:19;;;;;;;52.47;24.85;;;4.00;95.10;;;;;;5046761;28;20036;-71
2022/01/24 03:49:45;;;;;;;52.88;23.55;;;4.10;95.10;;;;;;5047060;28;20029;-72
2022/01/24 03:52:05;;;;;;;51.10;23.58;;;4.10;95.10;;;;;;5053171;28;20032;-71
2022/01/24 03:54:31;;;;;;;51.65;24.50;;;4.10;95.20;;;;;;5049545;28;20132;-71
2022/01/24 03:56:57;;;;;;;53.28;25.15;;;4.10;95.30;;;;;;5046761;28;20489;-71
2022/01/24 03:59:23;;;;;;;55.42;24.52;;;4.00;95.30;;;;;;5053116;28;20044;-71
2022/01/24 04:01:48;;;;;;;50.35;24.17;;;4.00;95.30;;;;;;5054871;28;20031;-71
2022/01/24 04:04:14;;;;;;;54.03;25.50;;;4.00;95.30;;;;;;5050716;28;20033;-71
2022/01/24 04:06:40;;;;;;;52.50;24.63;;;4.00;95.30;;;;;;5048673;28;20055;-71
2022/01/24 04:09:06;;;;;;;52.10;25.73;;;3.90;95.10;;;;;;5054737;28;20031;-71
2022/01/24 04:11:36;;;;;;;52.55;24.20;;;3.90;95.30;;;;;;5053393;28;20025;-71
2022/01/24 04:14:22;;;;;;;51.45;25.40;;;3.90;95.60;;;;;;5053995;28;20112;-71
2022/01/24 04:17:03;;;;;;;52.35;23.77;;;3.80;95.60;;;;;;5054782;28;20059;-71
2022/01/24 04:21:20;;;;;;;50.33;23.83;;;3.80;95.90;;;;;;5054403;28;20086;-71
2022/01/24 04:22:18;;;;;;;49.70;24.95;;;3.90;95.80;;;;;;5054664;28;20036;-71
2022/01/24 04:24:46;;;;;;;50.25;22.52;;;4.00;95.50;;;;;;5054509;28;20057;-71
2022/01/24 04:27:15;;;;;;;47.25;24.67;;;4.00;95.50;;;;;;5054511;28;20040;-71
2022/01/24 04:29:42;;;;;;;52.63;25.02;;;4.00;95.70;;;;;;5053607;28;20440;-71
2022/01/24 04:32:08;;;;;;;51.60;24.52;;;3.90;95.90;;;;;;5053733;28;20040;-71
2022/01/24 04:34:34;;;;;;;51.50;24.67;;;4.00;96.00;;;;;;5054255;28;20024;-71
2022/01/24 04:37:01;;;;;;;55.58;25.88;;;4.10;95.70;;;;;;5054585;28;20036;-72
2022/01/24 04:39:27;;;;;;;56.60;25.33;;;4.00;95.80;;;;;;5054806;28;20021;-72
2022/01/24 04:41:56;;;;;;;57.90;26.17;;;4.00;96.30;;;;;;5054878;28;20039;-71
2022/01/24 04:47:49;;;;;;;53.80;24.20;;;4.10;95.80;;;;;;5001947;28;20041;-71
2022/01/24 04:53:46;;;;;;;53.10;24.90;;;4.20;96.10;;;;;;4959540;28;20087;-71
2022/01/24 04:55:52;;;;;;;52.05;24.65;;;4.40;95.60;;;;;;4961611;28;20043;-71
2022/01/24 04:58:18;;;;;;;49.55;24.92;;;4.40;95.40;;;;;;4965881;28;20105;-71
2022/01/24 05:00:44;;;;;;;55.45;26.13;;;4.60;95.20;;;;;;4964575;28;20415;-72
2022/01/24 05:03:10;;;;;;;53.58;24.60;;;4.70;94.80;;;;;;4964644;28;20042;-71
2022/01/24 05:05:35;;;;;;;50.40;25.23;;;4.80;94.50;;;;;;4959643;28;20053;-71
2022/01/24 05:08:04;;;;;;;53.40;24.90;;;4.80;94.20;;;;;;4960568;28;20039;-71
2022/01/24 05:10:40;;;;;;;54.88;26.60;;;4.80;94.50;;;;;;4964965;28;20053;-71
2022/01/24 05:21:40;;;;;;;50.10;24.95;;;5.00;94.00;;;;;;4992555;28;19960;-72
2022/01/24 05:24:06;;;;;;;48.53;23.33;;;4.90;94.20;;;;;;4990958;28;20486;-71
2022/01/24 05:26:31;;;;;;;52.50;24.50;;;4.80;94.20;;;;;;4989997;28;20050;-72
2022/01/24 05:28:57;;;;;;;49.42;23.70;;;4.80;94.40;;;;;;5009874;28;20083;-72
2022/01/24 05:31:23;;;;;;;52.58;25.30;;;4.90;94.50;;;;;;5054323;28;20037;-71
2022/01/24 05:33:49;;;;;;;49.15;24.52;;;5.00;94.20;;;;;;5054863;28;20048;-71
2022/01/24 05:36:15;;;;;;;49.63;24.48;;;5.00;94.10;;;;;;5054582;28;20390;-72
2022/01/24 05:38:40;;;;;;;55.67;25.15;;;5.00;94.00;;;;;;5052339;28;20021;-71
2022/01/24 05:41:06;;;;;;;56.13;25.73;;;5.00;94.00;;;;;;5054283;28;20025;-71
2022/01/24 05:43:32;;;;;;;53.47;23.35;;;4.90;94.00;;;;;;5054819;28;20490;-71
2022/01/24 05:45:58;;;;;;;52.00;25.52;;;5.00;94.10;;;;;;5053037;28;20170;-71
2022/01/24 05:48:23;;;;;;;53.75;25.30;;;5.00;94.20;;;;;;5054934;28;20028;-71
2022/01/24 05:50:49;;;;;;;53.10;24.80;;;5.00;94.20;;;;;;5052968;28;20017;-71
2022/01/24 05:53:15;;;;;;;56.13;25.70;;;5.00;94.00;;;;;;5053121;28;20032;-71
2022/01/24 05:55:40;;;;;;;53.35;25.60;;;5.00;94.20;;;;;;5049748;28;20021;-71
2022/01/24 05:58:06;;;;;;;54.58;25.55;;;5.00;94.20;;;;;;5052081;28;20033;-71
2022/01/24 06:00:32;;;;;;;58.33;25.75;;;4.90;94.20;;;;;;5054791;28;20056;-71
2022/01/24 06:02:57;;;;;;;53.92;25.85;;;4.90;94.60;;;;;;5046326;28;20029;-71
2022/01/24 06:05:27;;;;;;;53.15;26.70;;;4.90;94.50;;;;;;5044783;28;20477;-71
2022/01/24 06:07:54;;;;;;;52.97;26.13;;;5.00;94.40;;;;;;5050071;28;20041;-71
2022/01/24 06:10:20;;;;;;;52.90;26.60;;;4.90;94.10;;;;;;5046756;28;20025;-71
2022/01/24 06:12:45;;;;;;;57.63;25.35;;;4.90;94.50;;;;;;5049752;28;20037;-71
2022/01/24 06:15:11;;;;;;;51.67;25.58;;;4.90;94.50;;;;;;5047935;28;20111;-71
2022/01/24 06:17:37;;;;;;;53.25;25.92;;;4.80;94.70;;;;;;5043996;28;20133;-72
2022/01/24 06:20:05;;;;;;;54.67;26.70;;;4.70;94.90;;;;;;5053740;28;20040;-71
2022/01/24 06:22:31;;;;;;;58.63;27.50;;;4.60;95.10;;;;;;5051256;28;20035;-71
2022/01/24 06:24:56;;;;;;;52.95;25.27;;;4.70;95.40;;;;;;5052213;28;20037;-71
2022/01/24 06:27:22;;;;;;;55.65;27.90;;;4.70;95.00;;;;;;5052445;28;20036;-72
2022/01/24 06:29:48;;;;;;;61.13;32.30;;;4.70;95.00;;;;;;5050365;28;20066;-72
2022/01/24 06:32:14;;;;;;;60.65;33.60;;;4.60;95.20;;;;;;5052114;28;20095;-71
2022/01/24 06:34:39;;;;;;;59.08;28.48;;;4.60;95.20;;;;;;5051732;28;20477;-72
2022/01/24 06:37:05;;;;;;;58.30;28.75;;;4.50;95.50;;;;;;5050631;28;20029;-72
2022/01/24 06:39:32;;;;;;;54.72;26.48;;;4.50;96.10;;;;;;5057918;28;20510;-72
2022/01/24 06:42:42;;;;;;;56.67;27.25;;;4.40;95.70;;;;;;5053245;28;20031;-73
2022/01/24 06:44:45;;;;;;;56.58;27.23;;;4.40;95.70;;;;;;5036196;28;20037;-72
2022/01/24 06:47:10;;;;;;;60.13;27.63;;;4.40;96.00;;;;;;5051832;28;20087;-72
2022/01/24 06:49:36;;;;;;;61.00;28.13;;;4.20;95.80;;;;;;5050229;28;20029;-72
2022/01/24 06:52:03;;;;;;;56.50;26.77;;;4.20;96.30;;;;;;5054824;28;20494;-72
2022/01/24 06:54:28;;;;;;;58.03;28.38;;;4.30;96.40;;;;;;5056976;28;20035;-72
2022/01/24 06:56:54;;;;;;;60.40;26.88;;;4.20;96.10;;;;;;5051791;28;20111;-72
2022/01/24 06:59:20;;;;;;;55.97;27.60;;;4.30;95.70;;;;;;5049940;28;20106;-73
2022/01/24 07:01:46;;;;;;;60.10;28.98;;;4.20;96.00;;;;;;5057067;28;20116;-73
2022/01/24 07:04:11;;;;;;;66.30;29.67;;;4.20;95.90;;;;;;5052940;28;20109;-72
2022/01/24 07:06:37;;;;;;;56.72;28.13;;;4.10;95.90;;;;;;5057030;28;20115;-72
2022/01/24 07:09:03;;;;;;;59.85;28.63;;;4.00;96.30;;;;;;5052802;28;20017;-72
2022/01/24 07:11:29;;;;;;;58.35;28.45;;;4.10;96.10;;;;;;5046067;28;20036;-72
2022/01/24 07:13:55;;;;;;;54.58;28.30;;;4.10;96.20;;;;;;5053829;28;20017;-72
2022/01/24 07:16:20;;;;;;;57.38;27.73;;;4.10;96.20;;;;;;5049031;28;20406;-73
2022/01/24 07:18:58;;;;;;;57.88;27.95;;;4.10;96.20;;;;;;5049391;28;20028;-72
2022/01/24 07:21:24;;;;;;;63.78;30.98;;;4.00;96.30;;;;;;5053219;28;20068;-72
2022/01/24 07:23:51;;;;;;;59.30;29.35;;;4.10;96.30;;;;;;5047436;28;20396;-72
2022/01/24 07:26:16;;;;;;;64.10;32.35;;;4.10;96.20;;;;;;5049505;28;20047;-73
2022/01/24 07:28:44;;;;;;;65.85;32.80;;;4.10;95.90;;;;;;5048878;28;20025;-73
2022/01/24 07:31:10;;;;;;;66.47;32.13;;;4.10;95.80;;;;;;5049302;28;20067;-72
2022/01/24 07:33:36;;;;;;;66.53;32.95;;;4.10;95.90;;;;;;5055187;28;20021;-72
2022/01/24 07:36:02;;;;;;;64.05;32.97;;;4.20;96.20;;;;;;5049351;28;20413;-72
2022/01/24 07:38:29;;;;;;;64.30;30.73;;;4.20;95.80;;;;;;5046540;28;20025;-72
2022/01/24 07:40:56;;;;;;;61.97;29.02;;;4.20;95.60;;;;;;5050986;28;20032;-72
2022/01/24 07:43:22;;;;;;;56.90;28.70;;;4.30;95.60;;;;;;5048422;28;20053;-72
2022/01/24 07:45:49;;;;;;;57.15;27.73;;;4.30;95.60;;;;;;5053083;28;20064;-72
2022/01/24 07:48:16;;;;;;;54.00;26.77;;;4.40;95.70;;;;;;5051321;28;20032;-72
2022/01/24 07:50:46;;;;;;;59.47;28.48;;;4.40;95.50;;;;;;5046022;28;20034;-72
2022/01/24 07:53:15;;;;;;;57.03;27.83;;;4.50;95.30;;;;;;5043762;28;20026;-72
2022/01/24 07:55:41;;;;;;;59.17;27.33;;;4.50;95.10;;;;;;5049693;28;20021;-72
2022/01/24 07:58:07;;;;;;;61.40;29.13;;;4.50;95.30;;;;;;5052235;28;20037;-73
2022/01/24 08:00:34;;;;;;;67.88;30.08;;;4.50;95.10;;;;;;5054450;28;20114;-72
2022/01/24 08:02:59;;;;;;;58.40;27.98;;;4.60;95.10;;;;;;5050016;28;20549;-72
2022/01/24 08:05:27;;;;;;;55.15;26.65;;;4.70;94.90;;;;;;5047459;28;20095;-73
2022/01/24 08:07:53;;;;;;;55.13;26.08;;;4.70;94.80;;;;;;5050347;28;20029;-75
2022/01/24 08:10:19;;;;;;;56.35;27.35;;;4.70;94.70;;;;;;5050704;28;20554;-72
2022/01/24 08:12:44;;;;;;;63.83;28.38;;;4.70;95.00;;;;;;5053880;28;20112;-71
2022/01/24 08:15:14;;;;;;;58.15;28.70;;;4.90;94.50;;;;;;5051425;28;20481;-72
2022/01/24 08:17:41;;;;;;;56.17;26.83;;;4.90;94.30;;;;;;5046572;28;20440;-72
2022/01/24 08:20:08;;;;;;;66.60;28.17;;;4.80;94.70;;;;;;5049345;28;20020;-72
2022/01/24 08:22:33;;;;;;;62.42;27.38;;;4.90;94.60;;;;;;5050204;28;20057;-71
2022/01/24 08:25:03;;;;;;;57.97;27.00;;;4.80;94.30;;;;;;5052497;28;20075;-72
2022/01/24 08:27:29;;;;;;;59.83;27.48;;;5.00;94.70;;;;;;5053236;28;20091;-71
2022/01/24 08:29:55;;;;;;;62.30;27.55;;;5.10;94.60;;;;;;5040041;28;20036;-69
2022/01/24 08:32:20;;;;;;;58.25;27.67;;;5.20;94.60;;;;;;5039498;28;20031;-70
2022/01/24 08:34:46;;;;;;;60.42;28.42;;;5.20;94.10;;;;;;5044795;28;20040;-69
2022/01/24 08:37:12;;;;;;;64.20;28.67;;;5.20;94.00;;;;;;5047140;28;20017;-69
2022/01/24 08:39:39;;;;;;;65.47;31.48;;;5.30;94.00;;;;;;5050021;28;20029;-70
2022/01/24 08:47:25;;;;;;;65.57;30.45;;;5.40;93.90;;;;;;5039646;28;20045;-69
2022/01/24 08:49:51;;;;;;;59.38;29.80;;;5.50;93.80;;;;;;5043967;28;20095;-70
2022/01/24 08:52:17;;;;;;;68.63;31.27;;;5.60;93.40;;;;;;5044029;28;20047;-69
2022/01/24 08:54:43;;;;;;;64.88;31.90;;;5.60;93.30;;;;;;5047889;28;20025;-69
2022/01/24 08:57:08;;;;;;;66.88;31.38;;;5.70;93.20;;;;;;5039814;28;20078;-69
2022/01/24 08:59:37;;;;;;;63.95;32.53;;;5.80;93.00;;;;;;5045103;28;20044;-70
2022/01/24 09:02:03;;;;;;;62.97;29.30;;;5.90;92.70;;;;;;5047281;28;20556;-68
2022/01/24 09:04:29;;;;;;;56.40;28.90;;;5.90;92.50;;;;;;5044360;28;20036;-68
2022/01/24 09:06:55;;;;;;;62.08;28.73;;;6.00;92.50;;;;;;5042031;28;20041;-69
2022/01/24 09:09:21;;;;;;;60.03;28.48;;;6.10;92.00;;;;;;5039889;28;20378;-69
2022/01/24 09:11:47;;;;;;;64.85;31.83;;;6.20;91.80;;;;;;5040868;28;20090;-69
2022/01/24 09:14:12;;;;;;;60.25;29.05;;;6.20;91.80;;;;;;5043244;28;20010;-69
2022/01/24 09:16:39;;;;;;;60.80;28.42;;;6.30;91.90;;;;;;5048233;28;20413;-69
2022/01/24 09:19:06;;;;;;;59.60;27.65;;;6.50;91.60;;;;;;5044195;28;20029;-69
2022/01/24 09:21:34;;;;;;;55.22;28.58;;;6.90;91.10;;;;;;5042927;28;20405;-69
2022/01/24 09:24:01;;;;;;;58.85;28.55;;;7.10;90.00;;;;;;5049494;28;20044;-68
2022/01/24 09:26:27;;;;;;;60.95;29.65;;;7.20;88.90;;;;;;5040437;28;20034;-70
2022/01/24 09:28:53;;;;;;;62.42;30.00;;;7.10;89.50;;;;;;5048123;28;20067;-69
2022/01/24 09:31:20;;;;;;;61.15;28.65;;;7.20;89.40;;;;;;5045329;28;20032;-69
2022/01/24 09:33:46;;;;;;;56.33;29.13;;;7.30;89.60;;;;;;5042222;28;20033;-69
2022/01/24 09:36:13;;;;;;;61.42;29.38;;;7.30;88.40;;;;;;5043008;28;20021;-69
2022/01/24 09:38:38;;;;;;;54.63;27.55;;;7.20;89.00;;;;;;5038908;28;20333;-69
2022/01/24 09:41:07;;;;;;;61.55;29.40;;;7.30;89.40;;;;;;5046456;28;20022;-69
2022/01/24 09:43:33;;;;;;;60.22;29.02;;;7.40;89.10;;;;;;5047106;28;20035;-69
2022/01/24 09:45:59;;;;;;;56.00;28.75;;;7.40;89.00;;;;;;5039730;28;20030;-69
2022/01/24 09:48:26;;;;;;;60.80;28.65;;;7.50;89.10;;;;;;5044935;28;20017;-69
2022/01/24 09:50:52;;;;;;;54.80;28.52;;;7.80;87.70;;;;;;5039871;28;20120;-68
2022/01/24 09:53:23;;;;;;;60.63;29.52;;;8.00;86.50;;;;;;5039673;28;20175;-69
2022/01/24 09:55:50;;;;;;;57.97;29.52;;;8.30;85.10;;;;;;5042064;28;20029;-70
2022/01/24 09:58:16;;;;;;;58.92;29.38;;;8.60;84.10;;;;;;5046465;28;20026;-71
2022/01/24 10:00:43;;;;;;;57.13;28.17;;;8.80;82.60;;;;;;5049727;28;20026;-69
2022/01/24 10:03:12;;;;;;;59.92;29.02;;;8.80;82.00;;;;;;5040512;28;20044;-69
2022/01/24 10:05:42;;;;;;;54.22;29.63;;;8.90;81.70;;;;;;5038779;28;20071;-69
2022/01/24 10:08:13;;;;;;;57.50;30.50;;;9.00;81.60;;;;;;5038222;28;20045;-69
2022/01/24 10:10:51;;;;;;;55.70;27.92;;;9.00;81.10;;;;;;5042229;28;20395;-69
2022/01/24 10:16:25;;;;;;;66.93;29.45;;;9.00;82.50;;;;;;5045434;28;20078;-69
2022/01/24 10:19:05;;;;;;;64.90;30.38;;;9.00;81.70;;;;;;5038559;28;20041;-69
2022/01/24 10:21:39;;;;;;;61.38;29.88;;;9.10;81.60;;;;;;5042720;28;20675;-69
2022/01/24 10:24:05;;;;;;;53.38;28.10;;;9.10;82.40;;;;;;5048672;28;20034;-68
2022/01/24 10:26:30;;;;;;;60.03;30.15;;;9.30;82.30;;;;;;5039045;28;20095;-69
2022/01/24 10:28:56;;;;;;;62.78;30.23;;;9.40;82.20;;;;;;5040603;28;20117;-69
2022/01/24 10:31:30;;;;;;;57.95;29.35;;;9.50;81.10;;;;;;5044139;28;20025;-69
2022/01/24 10:34:13;;;;;;;59.42;29.50;;;9.70;80.90;;;;;;5045392;28;20056;-69
2022/01/24 10:36:51;;;;;;;53.25;30.33;;;9.80;79.80;;;;;;5045451;28;20049;-68
2022/01/24 10:45:09;;;;;;;64.20;30.67;;;10.00;79.80;;;;;;5046263;28;20028;-69
2022/01/24 10:47:43;;;;;;;53.33;29.83;;;10.20;79.10;;;;;;5043151;28;20053;-70
2022/01/24 10:50:09;;;;;;;60.03;30.55;;;10.30;79.20;;;;;;5040627;28;20021;-69
2022/01/24 10:52:35;;;;;;;55.17;29.50;;;10.40;79.20;;;;;;5042478;28;20590;-69
2022/01/24 10:55:13;;;;;;;57.22;29.13;;;10.30;79.30;;;;;;5045830;28;20025;-69
2022/01/24 10:57:40;;;;;;;54.83;29.52;;;10.40;79.20;;;;;;5044778;28;20040;-69
2022/01/24 11:00:13;;;;;;;59.58;32.65;;;10.70;79.20;;;;;;5040943;28;20397;-69
2022/01/24 11:02:42;;;;;;;55.65;30.33;;;10.80;77.40;;;;;;5039074;28;20026;-71
2022/01/24 11:05:24;;;;;;;60.85;30.73;;;10.90;77.80;;;;;;5044453;28;20030;-70
2022/01/24 11:08:08;;;;;;;56.78;29.65;;;11.50;76.80;;;;;;5051182;28;20170;-69
2022/01/24 11:10:49;;;;;;;58.50;29.92;;;11.90;74.50;;;;;;5049378;28;20414;-70
2022/01/24 11:13:19;;;;;;;52.65;28.17;;;12.10;74.00;;;;;;5047491;28;20033;-71
2022/01/24 11:15:55;;;;;;;50.65;27.58;;;12.00;73.30;;;;;;5047736;28;20082;-70
2022/01/24 11:18:22;;;;;;;52.47;28.70;;;12.00;74.00;;;;;;5047312;28;20103;-69
2022/01/24 11:20:49;;;;;;;52.83;29.15;;;12.00;73.60;;;;;;5044372;28;20041;-70
2022/01/24 11:23:20;;;;;;;54.05;29.90;;;12.00;73.30;;;;;;5043627;28;20022;-69
2022/01/24 11:25:48;;;;;;;51.75;28.70;;;12.10;74.20;;;;;;5048801;28;20040;-70
2022/01/24 11:28:14;;;;;;;51.25;28.38;;;12.20;73.10;;;;;;5051350;28;20033;-70
2022/01/24 11:30:59;;;;;;;50.65;26.73;;;12.40;73.60;;;;;;5051219;28;20025;-70
2022/01/24 11:33:51;;;;;;;46.97;26.92;;;12.40;73.50;;;;;;5043546;28;20021;-70
2022/01/24 11:36:17;;;;;;;42.20;24.88;;;12.30;73.80;;;;;;5043309;28;20156;-69
2022/01/24 11:38:44;;;;;;;48.92;25.27;;;12.60;73.90;;;;;;5049773;28;20025;-70
2022/01/24 11:41:34;;;;;;;45.10;25.90;;;12.60;73.40;;;;;;5049778;28;20017;-72
2022/01/24 11:44:15;;;;;;;43.10;26.05;;;12.70;74.30;;;;;;5050455;28;20029;-70
2022/01/24 11:46:47;;;;;;;45.28;26.02;;;13.50;71.70;;;;;;5051641;28;20087;-70
2022/01/24 11:49:14;;;;;;;42.70;25.58;;;14.40;70.20;;;;;;5050802;28;20086;-70
2022/01/24 11:51:44;;;;;;;42.63;25.15;;;14.50;68.30;;;;;;5048993;28;20116;-70
2022/01/24 11:54:44;;;;;;;42.33;24.52;;;14.40;68.60;;;;;;5049543;28;20036;-70
2022/01/24 11:57:18;;;;;;;41.00;23.75;;;14.60;68.50;;;;;;5043050;28;20091;-70
2022/01/24 11:59:45;;;;;;;44.55;24.83;;;15.30;67.30;;;;;;5044898;28;20501;-70
2022/01/24 12:02:25;;;;;;;42.22;23.83;;;15.80;65.90;;;;;;5044802;28;20029;-70
2022/01/24 12:05:10;;;;;;;37.47;23.90;;;16.20;64.80;;;;;;5043694;28;20056;-70
2022/01/24 12:07:47;;;;;;;41.30;24.08;;;16.20;64.70;;;;;;5040899;28;20059;-70
2022/01/24 12:10:38;;;;;;;41.65;24.65;;;16.30;63.50;;;;;;5042608;28;20036;-70
2022/01/24 12:13:13;;;;;;;39.47;22.80;;;16.50;63.10;;;;;;5047704;28;20029;-69
2022/01/24 12:15:39;;;;;;;36.88;21.70;;;16.70;63.60;;;;;;5046796;28;20037;-70
2022/01/24 12:18:08;;;;;;;36.58;21.85;;;16.90;63.30;;;;;;5047507;28;20482;-70
2022/01/24 12:20:37;;;;;;;37.13;20.73;;;16.90;62.40;;;;;;5046260;28;20025;-70
2022/01/24 12:23:24;;;;;;;32.28;19.98;;;17.10;63.00;;;;;;5047933;28;20036;-70
2022/01/24 12:25:54;;;;;;;33.00;20.58;;;17.20;63.10;;;;;;5047353;28;20045;-70
2022/01/24 12:28:26;;;;;;;30.48;17.73;;;17.40;61.00;;;;;;5046846;28;20562;-70
2022/01/24 12:31:16;;;;;;;23.05;14.93;;;18.00;61.30;;;;;;5047805;28;20508;-70
2022/01/24 12:33:44;;;;;;;27.35;17.10;;;20.40;60.30;;;;;;5041059;28;20033;-70
2022/01/24 12:36:12;;;;;;;27.45;17.40;;;24.00;52.00;;;;;;5046792;28;20057;-70
2022/01/24 12:38:51;;;;;;;30.23;17.95;;;26.50;47.70;;;;;;5049017;28;20032;-70
2022/01/24 12:41:23;;;;;;;24.55;18.00;;;27.90;44.50;;;;;;5047663;28;20051;-70
2022/01/24 12:44:11;;;;;;;25.05;17.02;;;28.90;42.00;;;;;;5043277;28;20033;-70
2022/01/24 12:46:37;;;;;;;24.05;16.05;;;29.80;40.90;;;;;;5042893;28;20049;-70
2022/01/24 12:49:06;;;;;;;22.27;13.60;;;30.40;40.30;;;;;;5046326;28;20025;-70
2022/01/24 12:51:35;;;;;;;21.20;13.65;;;30.10;39.50;;;;;;5043776;28;20039;-70
2022/01/24 12:54:04;;;;;;;19.15;11.95;;;27.70;39.40;;;;;;5043233;28;20035;-70
2022/01/24 12:56:32;;;;;;;21.95;14.70;;;25.70;42.50;;;;;;5039187;28;20021;-70
2022/01/24 12:58:58;;;;;;;18.80;12.50;;;23.40;44.40;;;;;;5044886;28;20071;-70
2022/01/24 13:01:32;;;;;;;9.80;5.75;;;22.70;48.70;;;;;;5044384;28;20033;-69
2022/01/24 13:03:59;;;;;;;10.73;6.28;;;22.40;49.20;;;;;;5044262;28;20043;-70
2022/01/24 13:06:28;;;;;;;10.02;5.10;;;22.40;48.90;;;;;;5042228;28;20064;-70
2022/01/24 13:09:03;;;;;;;8.65;5.72;;;21.90;49.40;;;;;;5044766;28;20386;-70
2022/01/24 13:11:30;;;;;;;15.77;11.20;;;21.00;50.60;;;;;;5047099;28;20024;-70
2022/01/24 13:14:27;;;;;;;16.55;11.13;;;23.00;50.40;;;;;;5039104;28;20502;-70
2022/01/24 13:25:20;;;;;;;17.20;11.40;;;31.60;37.70;;;;;;5037092;28;20042;-70
2022/01/24 13:27:51;;;;;;;15.05;10.30;;;32.60;37.20;;;;;;5038909;28;20486;-70
2022/01/24 13:30:25;;;;;;;17.40;10.88;;;33.70;37.00;;;;;;5041538;28;20025;-70
2022/01/24 13:32:57;;;;;;;14.95;9.90;;;33.50;36.20;;;;;;5044330;28;20025;-70
2022/01/24 13:35:29;;;;;;;16.38;10.60;;;34.10;36.20;;;;;;5047624;28;20020;-70
2022/01/24 13:38:05;;;;;;;14.50;10.57;;;33.10;36.10;;;;;;5050558;28;20037;-70
2022/01/24 13:40:38;;;;;;;16.63;10.85;;;33.00;36.50;;;;;;5050356;28;20048;-70
2022/01/24 13:43:05;;;;;;;15.35;10.48;;;32.80;36.90;;;;;;5050729;28;20494;-71
2022/01/24 13:45:40;;;;;;;20.85;12.00;;;32.50;36.50;;;;;;5045611;28;20036;-69
2022/01/24 13:48:17;;;;;;;12.90;9.25;;;31.40;36.40;;;;;;5051535;28;20040;-69
2022/01/24 13:50:51;;;;;;;13.07;9.27;;;31.20;36.10;;;;;;5049113;28;20511;-69
2022/01/24 13:53:37;;;;;;;13.73;8.35;;;31.30;36.20;;;;;;5044618;28;20087;-69
2022/01/24 13:56:21;;;;;;;13.68;10.00;;;31.50;36.70;;;;;;5050308;28;20516;-69
2022/01/24 13:59:10;;;;;;;14.38;10.05;;;31.30;36.70;;;;;;5048065;28;20029;-70
2022/01/24 14:01:57;;;;;;;15.30;9.23;;;31.30;36.20;;;;;;5050018;28;20493;-69
2022/01/24 14:04:36;;;;;;;15.77;9.20;;;31.90;36.10;;;;;;5039029;28;20029;-70
2022/01/24 14:07:29;;;;;;;20.17;10.23;;;31.10;36.50;;;;;;5051265;28;20544;-70
2022/01/24 14:09:57;;;;;;;14.05;9.48;;;30.90;37.30;;;;;;5044046;28;20049;-70
2022/01/24 14:12:33;;;;;;;12.68;9.07;;;31.10;36.40;;;;;;5044547;28;20016;-70
2022/01/24 14:15:12;;;;;;;11.48;8.23;;;31.80;36.30;;;;;;5045354;28;20120;-70
2022/01/24 14:18:18;;;;;;;13.93;9.15;;;30.70;37.20;;;;;;5047948;28;20041;-70
2022/01/24 14:20:39;;;;;;;16.98;9.85;;;29.40;38.40;;;;;;5048228;28;20036;-70
